Anegada, British Virgin Islands
Current Conditions -  °F | °C
As of 8:00 AM on Tuesday 21 Oct 2014 (Local Time) from TUPJ Reporting Station
Scattered Clouds Scattered Clouds  
Wind Chill: 84°   Ceiling: Unl
Heat Index: 92°   Visibility: 6mi
Dew Point: 75°   Wind: 8mph
Humidity: 74%   Direction: 110°ESE
Pressure: 29.94"   Gusts: NA
Location:  18.73°N, 64.32°W
Report Text: TUPJ 211200Z 11007KT 9999 SCT022 29/24 Q1014 RMK A2996
Loading
Personal Weather Stations






























Interactive Weather Map
Tropical Storm Tracking
New forecast layout! Learn more

10-Day Weather Forecast

Advertisements
Track Severe Weather on mobile